Time;durP1;ratioP1;P1;durP2;ratioP2;P2;SDS_P1;SDS_P2;PMS_P1;PMS_P2;Temp;Humidity;BMP_temperature;BMP_pressure;BME280_temperature;BME280_humidity;BME280_pressure;Samples;Min_cycle;Max_cycle;Signal;HPM_P1;HPM_P2
2022/12/02 00:01:48;;;;;;;16.43;13.53;;;;;;;8.32;100.00;99932.94;5052834;28;20211;-55
2022/12/02 00:04:21;;;;;;;16.03;14.33;;;;;;;8.31;100.00;99931.19;5063312;28;20561;-55
2022/12/02 00:06:48;;;;;;;17.20;14.30;;;;;;;8.31;100.00;99936.28;5073135;28;20201;-55
2022/12/02 00:09:25;;;;;;;17.13;13.73;;;;;;;8.25;100.00;99938.63;5072785;28;20200;-56
2022/12/02 00:11:52;;;;;;;16.63;13.50;;;;;;;8.18;100.00;99939.25;5073122;28;20263;-55
2022/12/02 00:14:24;;;;;;;17.40;14.33;;;;;;;8.16;100.00;99928.94;5073044;28;20589;-56
2022/12/02 00:16:51;;;;;;;16.07;13.93;;;;;;;8.20;100.00;99935.91;5073819;28;20195;-56
2022/12/02 00:19:18;;;;;;;18.87;15.40;;;;;;;8.24;100.00;99939.47;5072993;28;20222;-56
2022/12/02 00:21:45;;;;;;;18.03;14.20;;;;;;;8.12;100.00;99919.44;5073012;28;20199;-56
2022/12/02 00:24:12;;;;;;;16.33;13.40;;;;;;;8.22;100.00;99936.84;5072831;28;20191;-55
2022/12/02 00:26:39;;;;;;;15.40;13.20;;;;;;;8.26;100.00;99937.81;5072588;28;20187;-55
2022/12/02 00:29:06;;;;;;;15.60;12.83;;;;;;;8.26;100.00;99937.81;5072752;28;20658;-56
2022/12/02 00:31:34;;;;;;;14.57;11.87;;;;;;;8.30;100.00;99934.53;5072830;28;20195;-56
2022/12/02 00:34:02;;;;;;;17.07;13.67;;;;;;;8.32;100.00;99941.44;5072778;28;20195;-56
2022/12/02 00:36:29;;;;;;;16.43;13.57;;;;;;;8.28;100.00;99937.06;5072634;28;20190;-56
2022/12/02 00:38:55;;;;;;;16.10;12.90;;;;;;;8.28;100.00;99933.63;5072628;28;20215;-55
2022/12/02 00:41:23;;;;;;;15.40;12.80;;;;;;;8.26;100.00;99937.81;5072527;28;20256;-56
2022/12/02 00:46:36;;;;;;;16.17;13.03;;;;;;;8.22;100.00;99926.59;5072681;28;20189;-56
2022/12/02 00:49:06;;;;;;;17.60;13.47;;;;;;;8.24;100.00;99937.75;5072751;28;20616;-56
2022/12/02 00:51:33;;;;;;;19.43;14.33;;;;;;;8.24;100.00;99934.34;5072401;28;20315;-56
2022/12/02 00:54:00;;;;;;;17.83;13.80;;;;;;;8.26;100.00;99942.94;5072365;28;20192;-56
2022/12/02 00:56:27;;;;;;;18.40;13.70;;;;;;;8.23;100.00;99941.13;5072432;28;20191;-55
2022/12/02 00:58:54;;;;;;;18.23;14.10;;;;;;;8.23;100.00;99941.13;5072726;28;20316;-56
2022/12/02 01:01:21;;;;;;;15.90;13.60;;;;;;;8.21;100.00;99936.78;5072479;28;20199;-56
2022/12/02 01:03:50;;;;;;;18.67;13.97;;;;;;;8.24;100.00;99929.22;5072401;28;20198;-56
2022/12/02 01:06:17;;;;;;;16.67;13.07;;;;;;;7.99;100.00;99906.22;5072117;28;20191;-55
2022/12/02 01:08:44;;;;;;;18.47;13.20;;;;;;;8.20;100.00;99928.25;5072236;28;20188;-56
2022/12/02 01:11:11;;;;;;;18.77;14.60;;;;;;;8.14;100.00;99933.16;5072942;28;20187;-55
2022/12/02 01:13:38;;;;;;;17.80;14.90;;;;;;;8.10;100.00;99933.84;5071976;28;20703;-55
2022/12/02 01:16:06;;;;;;;21.13;15.27;;;;;;;8.18;100.00;99935.00;5063257;28;20188;-55
2022/12/02 01:18:35;;;;;;;18.50;13.87;;;;;;;8.10;100.00;99930.47;5051872;28;20226;-55
2022/12/02 01:21:04;;;;;;;20.67;14.80;;;;;;;8.11;100.00;99927.06;5052286;28;20195;-55
2022/12/02 01:23:30;;;;;;;21.37;15.90;;;;;;;8.11;100.00;99929.63;5050999;28;20732;-56
2022/12/02 01:25:58;;;;;;;17.63;14.30;;;;;;;8.12;100.00;99921.13;5052154;28;20253;-56
2022/12/02 01:28:25;;;;;;;21.33;15.40;;;;;;;8.12;100.00;99923.69;5051772;28;20776;-56
2022/12/02 01:30:52;;;;;;;20.83;15.30;;;;;;;8.13;100.00;99915.22;5052437;28;20199;-56
2022/12/02 01:33:19;;;;;;;21.00;15.23;;;;;;;8.15;100.00;99923.78;5052032;28;20194;-56
2022/12/02 01:35:45;;;;;;;22.33;15.97;;;;;;;8.13;100.00;99916.03;5051947;28;20195;-56
2022/12/02 01:38:14;;;;;;;23.30;16.20;;;;;;;8.17;100.00;99923.03;5051819;28;20226;-56
2022/12/02 01:40:41;;;;;;;23.90;16.00;;;;;;;8.13;100.00;99916.03;5052368;28;20192;-55
2022/12/02 01:43:08;;;;;;;22.47;15.90;;;;;;;8.07;100.00;99923.56;5051894;28;20198;-55
2022/12/02 01:45:35;;;;;;;21.80;15.27;;;;;;;8.06;100.00;99920.94;5051630;28;20661;-55
2022/12/02 01:48:03;;;;;;;20.77;16.47;;;;;;;8.13;100.00;99920.31;5051835;28;20203;-55
2022/12/02 01:50:30;;;;;;;21.63;14.67;;;;;;;8.12;100.00;99911.78;5051787;28;20196;-55
2022/12/02 01:52:57;;;;;;;20.93;15.63;;;;;;;8.10;100.00;99912.53;5052499;28;20235;-55
2022/12/02 01:55:27;;;;;;;18.23;13.80;;;;;;;8.06;100.00;99910.69;5052066;28;20197;-55
2022/12/02 01:57:55;;;;;;;19.47;14.93;;;;;;;8.00;100.00;99906.25;5051554;28;20344;-55
2022/12/02 02:00:22;;;;;;;20.48;15.93;;;;;;;8.06;100.00;99903.00;5051070;28;20447;-55
2022/12/02 02:02:49;;;;;;;19.07;14.77;;;;;;;8.09;100.00;99900.56;5051752;28;20282;-55
2022/12/02 02:05:19;;;;;;;18.30;14.10;;;;;;;7.99;100.00;99885.75;5052103;28;20199;-55
2022/12/02 02:07:48;;;;;;;19.67;13.80;;;;;;;8.10;100.00;99897.19;5069449;28;20207;-55
2022/12/02 02:10:15;;;;;;;21.08;16.17;;;;;;;8.12;100.00;99904.09;5065036;28;20436;-55
2022/12/02 02:12:44;;;;;;;18.47;14.63;;;;;;;8.13;100.00;99900.69;5051645;28;20336;-55
2022/12/02 02:15:12;;;;;;;17.77;13.20;;;;;;;8.03;100.00;99880.75;5031636;28;20254;-55
2022/12/02 02:17:39;;;;;;;18.17;13.93;;;;;;;8.06;100.00;99885.09;5035147;28;20214;-55
2022/12/02 02:20:09;;;;;;;17.70;13.37;;;;;;;8.14;100.00;99897.31;5051354;28;20203;-55
2022/12/02 02:22:41;;;;;;;18.13;14.27;;;;;;;8.15;100.00;99898.19;5051246;28;20200;-55
2022/12/02 02:25:14;;;;;;;17.87;13.90;;;;;;;8.10;100.00;99899.75;5051556;28;20200;-55
2022/12/02 02:27:44;;;;;;;17.23;13.37;;;;;;;8.10;100.00;99902.31;5051458;28;20192;-55
2022/12/02 02:30:12;;;;;;;17.83;14.47;;;;;;;8.08;100.00;99891.13;5051164;28;20202;-55
2022/12/02 02:32:39;;;;;;;21.23;14.40;;;;;;;8.11;100.00;99901.47;5054313;28;20254;-55
2022/12/02 02:35:06;;;;;;;20.27;14.40;;;;;;;8.14;100.00;99904.13;5055376;28;20273;-55
2022/12/02 02:37:33;;;;;;;20.13;14.53;;;;;;;8.17;100.00;99905.09;5054831;28;20192;-55
2022/12/02 02:40:00;;;;;;;18.80;14.83;;;;;;;8.17;100.00;99902.53;5054951;28;20446;-55
2022/12/02 02:42:28;;;;;;;17.30;13.77;;;;;;;8.19;100.00;99908.56;5054573;28;20184;-55
2022/12/02 02:44:56;;;;;;;17.27;13.07;;;;;;;8.21;100.00;99906.91;5054725;28;20206;-56
2022/12/02 02:47:23;;;;;;;17.87;14.30;;;;;;;8.25;100.00;99906.22;5055118;28;20204;-55
2022/12/02 02:49:50;;;;;;;17.70;13.63;;;;;;;8.22;100.00;99911.25;5055214;28;20276;-55
2022/12/02 02:52:17;;;;;;;19.83;14.00;;;;;;;8.26;100.00;99909.66;5054586;28;20223;-55
2022/12/02 02:54:44;;;;;;;19.77;15.95;;;;;;;8.32;100.00;99911.56;5054050;28;20427;-55
2022/12/02 02:57:11;;;;;;;20.13;17.08;;;;;;;8.43;100.00;99912.78;5053640;28;20459;-55
2022/12/02 02:59:42;;;;;;;18.83;15.17;;;;;;;8.42;100.00;99909.34;5054497;28;20227;-56
2022/12/02 03:02:12;;;;;;;17.83;13.57;;;;;;;8.39;100.00;99911.81;5054384;28;20195;-55
2022/12/02 03:04:40;;;;;;;18.77;13.97;;;;;;;8.43;100.00;99916.22;5054461;28;20192;-56
2022/12/02 03:07:07;;;;;;;23.13;16.33;;;;;;;8.37;100.00;99921.13;5054497;28;20211;-55
2022/12/02 03:09:35;;;;;;;21.60;18.63;;;;;;;8.36;100.00;99919.38;5053314;28;20439;-55
2022/12/02 03:12:02;;;;;;;19.00;15.80;;;;;;;8.44;100.00;99917.06;5053492;28;20196;-56
2022/12/02 03:14:30;;;;;;;20.53;15.67;;;;;;;8.43;100.00;99910.22;5054702;28;20933;-56
2022/12/02 03:17:01;;;;;;;22.42;16.73;;;;;;;8.44;100.00;99917.06;5054618;28;20454;-56
2022/12/02 03:19:28;;;;;;;26.37;16.87;;;;;;;8.42;100.00;99919.59;5054026;28;20220;-55
2022/12/02 03:21:55;;;;;;;20.10;15.63;;;;;;;8.42;100.00;99923.84;5054286;28;20250;-55
2022/12/02 03:24:22;;;;;;;22.57;15.70;;;;;;;8.26;100.00;99918.22;5054105;28;20204;-55
2022/12/02 03:26:50;;;;;;;19.83;15.47;;;;;;;8.19;100.00;99915.38;5054075;28;20203;-56
2022/12/02 03:29:17;;;;;;;21.00;14.77;;;;;;;8.24;100.00;99919.81;5054029;28;20201;-55
2022/12/02 03:31:45;;;;;;;21.80;15.87;;;;;;;8.21;100.00;99918.88;5054143;28;20245;-55
2022/12/02 03:34:14;;;;;;;20.23;14.97;;;;;;;8.19;100.00;99925.63;5053522;28;20543;-56
2022/12/02 03:36:41;;;;;;;21.07;15.70;;;;;;;8.22;100.00;99929.16;5053871;28;20270;-56
2022/12/02 03:39:09;;;;;;;19.83;14.97;;;;;;;8.24;100.00;99926.66;5053607;28;20225;-56
2022/12/02 03:41:37;;;;;;;20.77;16.20;;;;;;;8.21;100.00;99924.84;5054323;28;20298;-56
2022/12/02 03:44:04;;;;;;;18.33;15.00;;;;;;;8.23;100.00;99919.78;5052452;28;20199;-56
2022/12/02 03:46:31;;;;;;;20.07;15.17;;;;;;;8.23;100.00;99928.34;5053455;28;20654;-56
2022/12/02 03:48:58;;;;;;;22.63;17.85;;;;;;;8.27;100.00;99930.19;5037804;28;20452;-56
2022/12/02 03:51:27;;;;;;;20.07;15.77;;;;;;;8.34;100.00;99936.41;5033561;28;20282;-55
2022/12/02 03:53:54;;;;;;;20.60;15.57;;;;;;;8.29;100.00;99938.78;5037715;28;20198;-56
2022/12/02 03:56:21;;;;;;;18.57;15.07;;;;;;;8.27;100.00;99940.44;5052612;28;20202;-56
2022/12/02 03:58:49;;;;;;;19.23;14.73;;;;;;;8.22;99.89;99938.50;5049907;28;20588;-56
2022/12/02 04:01:17;;;;;;;18.73;14.63;;;;;;;8.19;100.00;99944.41;5050727;28;20245;-56
2022/12/02 04:03:44;;;;;;;20.13;15.83;;;;;;;8.17;100.00;99952.84;5052850;28;20195;-56
2022/12/02 04:06:12;;;;;;;17.90;14.57;;;;;;;8.19;100.00;99954.66;5050316;28;20214;-56
2022/12/02 04:08:40;;;;;;;20.07;14.93;;;;;;;8.22;100.00;99956.44;5049257;28;20197;-56
2022/12/02 04:11:07;;;;;;;20.60;14.43;;;;;;;8.22;100.00;99953.88;5053499;28;20202;-56
2022/12/02 04:13:34;;;;;;;20.13;14.50;;;;;;;8.22;100.00;99948.75;5053121;28;20728;-56
2022/12/02 04:16:01;;;;;;;17.53;13.87;;;;;;;8.22;100.00;99949.63;5053394;28;20245;-56
2022/12/02 04:18:27;;;;;;;22.27;14.93;;;;;;;8.24;100.00;99957.38;5052861;28;20741;-56
2022/12/02 04:20:54;;;;;;;17.97;14.53;;;;;;;8.22;100.00;99956.44;5053012;28;20206;-56
2022/12/02 04:23:21;;;;;;;20.37;15.30;;;;;;;8.27;100.00;99960.91;5052697;28;20188;-56
2022/12/02 04:25:49;;;;;;;18.50;14.97;;;;;;;8.23;100.00;99959.06;5053321;28;20198;-57
2022/12/02 04:28:16;;;;;;;20.20;15.03;;;;;;;8.22;100.00;99961.56;5052675;28;20245;-56
2022/12/02 04:30:43;;;;;;;20.97;14.90;;;;;;;8.17;100.00;99963.97;5052744;28;20192;-56
2022/12/02 04:33:09;;;;;;;21.77;15.07;;;;;;;8.22;100.00;99964.09;5053204;28;20199;-56
2022/12/02 04:35:36;;;;;;;19.87;14.50;;;;;;;8.20;100.00;99965.75;5052260;28;20188;-56
2022/12/02 04:38:03;;;;;;;22.30;15.00;;;;;;;8.25;100.00;99974.44;5052459;28;20191;-56
2022/12/02 04:40:30;;;;;;;21.60;15.40;;;;;;;8.25;100.00;99974.44;5052314;28;20225;-56
2022/12/02 04:42:59;;;;;;;21.53;14.30;;;;;;;8.28;100.00;99975.47;5052363;28;20195;-56
2022/12/02 04:45:26;;;;;;;19.57;14.50;;;;;;;8.26;100.00;99973.66;5052404;28;20662;-56
2022/12/02 04:47:53;;;;;;;24.23;15.27;;;;;;;8.27;100.00;99977.97;5052339;28;20195;-56
2022/12/02 04:50:20;;;;;;;19.23;13.57;;;;;;;8.26;100.00;99983.88;5052261;28;20194;-56
2022/12/02 04:52:47;;;;;;;22.60;14.77;;;;;;;8.14;100.00;99957.88;5052890;28;20230;-56
2022/12/02 04:55:13;;;;;;;21.93;14.67;;;;;;;8.26;100.00;99976.22;5052511;28;20250;-56
2022/12/02 04:57:40;;;;;;;19.83;14.30;;;;;;;8.28;100.00;99984.84;5052873;28;20203;-56
2022/12/02 05:00:10;;;;;;;22.07;14.73;;;;;;;8.23;100.00;99991.47;5052330;28;20215;-55
2022/12/02 05:02:37;;;;;;;21.47;13.90;;;;;;;8.26;100.00;100000.13;5051458;28;20205;-55
2022/12/02 05:05:04;;;;;;;23.47;15.13;;;;;;;8.27;100.00;100001.88;5052060;28;20200;-55
2022/12/02 05:07:30;;;;;;;20.87;14.63;;;;;;;8.29;100.00;100007.06;5054480;28;20673;-55
2022/12/02 05:09:57;;;;;;;21.33;13.90;;;;;;;8.25;99.98;100002.59;5072045;28;20191;-54
2022/12/02 05:12:24;;;;;;;22.73;15.70;;;;;;;8.25;100.00;100003.50;5063179;28;20606;-55
2022/12/02 05:14:51;;;;;;;22.27;15.03;;;;;;;8.27;100.00;100001.00;5072027;28;20271;-55
2022/12/02 05:17:19;;;;;;;22.63;16.33;;;;;;;8.27;100.00;100007.00;5072075;28;20637;-55
2022/12/02 05:19:46;;;;;;;22.17;15.93;;;;;;;8.31;100.00;100007.97;5071929;28;21042;-55
2022/12/02 05:22:13;;;;;;;26.47;15.87;;;;;;;8.32;100.00;100007.16;5072679;28;20389;-55
2022/12/02 05:24:40;;;;;;;25.30;16.97;;;;;;;8.36;100.00;100010.69;5071829;28;20187;-55
2022/12/02 05:27:07;;;;;;;24.67;16.87;;;;;;;8.38;100.00;100003.94;5072377;28;20198;-55
2022/12/02 05:29:34;;;;;;;25.17;17.60;;;;;;;8.31;100.00;100000.28;5072030;28;20196;-55
2022/12/02 05:32:01;;;;;;;26.73;16.23;;;;;;;8.32;100.00;100007.16;5071998;28;20584;-55
2022/12/02 05:34:29;;;;;;;26.87;16.90;;;;;;;8.35;100.00;100008.97;5072439;28;20196;-55
2022/12/02 05:36:55;;;;;;;27.23;18.47;;;;;;;8.40;100.00;100009.97;5069971;28;20198;-55
2022/12/02 05:39:22;;;;;;;28.33;16.53;;;;;;;8.47;100.00;100004.22;5056316;28;20229;-55
2022/12/02 05:41:50;;;;;;;25.67;17.07;;;;;;;8.46;100.00;100002.50;5051825;28;20192;-55
2022/12/02 05:44:22;;;;;;;26.53;17.30;;;;;;;8.35;100.00;99993.59;5051988;28;20589;-55
2022/12/02 05:46:49;;;;;;;26.77;16.57;;;;;;;8.48;99.94;100005.97;5051527;28;20245;-55
2022/12/02 05:49:19;;;;;;;24.60;16.50;;;;;;;8.48;99.57;100006.84;5051475;28;20196;-55
2022/12/02 05:51:53;;;;;;;29.03;16.93;;;;;;;8.54;99.17;100003.63;5051874;28;20220;-56
2022/12/02 05:54:20;;;;;;;23.77;16.40;;;;;;;8.55;98.72;100006.22;5051723;28;20192;-55
2022/12/02 05:56:48;;;;;;;23.77;16.17;;;;;;;8.56;98.53;100015.66;5051691;28;20278;-55
2022/12/02 05:59:18;;;;;;;23.77;15.90;;;;;;;8.58;98.38;100019.13;5051510;28;20224;-55
2022/12/02 06:01:48;;;;;;;21.87;14.90;;;;;;;8.61;97.72;100014.09;5051715;28;20194;-55
2022/12/02 06:04:18;;;;;;;22.57;16.53;;;;;;;8.66;97.76;100012.53;5051318;28;20188;-55
2022/12/02 06:06:45;;;;;;;25.40;15.33;;;;;;;8.62;97.92;100005.59;5053251;28;20196;-56
2022/12/02 06:09:15;;;;;;;21.97;15.83;;;;;;;8.67;97.54;100014.31;5055236;28;20207;-56
2022/12/02 06:11:43;;;;;;;20.77;14.97;;;;;;;8.69;97.64;100010.09;5055285;28;20195;-56
2022/12/02 06:14:15;;;;;;;23.10;15.53;;;;;;;8.72;97.47;100020.44;5055044;28;20204;-56
2022/12/02 06:16:46;;;;;;;24.47;15.23;;;;;;;8.72;96.61;100025.56;5055308;28;20574;-56
2022/12/02 06:19:22;;;;;;;24.13;15.83;;;;;;;8.25;95.54;99952.28;5054874;28;20306;-56
2022/12/02 06:21:50;;;;;;;25.00;15.90;;;;;;;8.66;96.63;100019.34;5055116;28;20192;-56
2022/12/02 06:24:23;;;;;;;21.27;15.57;;;;;;;8.70;96.39;100028.91;5054985;28;20536;-57
2022/12/02 06:26:51;;;;;;;25.10;15.70;;;;;;;8.75;95.55;100029.91;5055129;28;20555;-56
2022/12/02 06:29:20;;;;;;;27.70;19.98;;;;;;;8.71;95.62;100015.25;5053872;28;20427;-56
2022/12/02 06:31:46;;;;;;;24.27;17.87;;;;;;;8.86;94.25;100032.00;5055429;28;20192;-56
2022/12/02 06:34:34;;;;;;;25.30;15.23;;;;;;;8.88;93.01;100035.47;5054827;28;20598;-55
2022/12/02 06:37:09;;;;;;;21.43;15.00;;;;;;;8.91;92.43;100034.69;5054611;28;20282;-55
2022/12/02 06:39:38;;;;;;;25.07;14.73;;;;;;;8.96;91.84;100038.25;5062187;28;20288;-56
2022/12/02 06:42:15;;;;;;;25.88;18.20;;;;;;;9.03;91.75;100040.22;5074467;28;20434;-56
2022/12/02 06:47:48;;;;;;;25.30;16.90;;;;;;;9.10;91.61;100039.56;5070827;28;20202;-56
2022/12/02 06:50:26;;;;;;;24.77;16.33;;;;;;;9.05;91.28;100045.38;5075062;28;20604;-56
2022/12/02 06:52:54;;;;;;;23.40;16.37;;;;;;;9.04;90.81;100048.78;5074874;28;20223;-56
2022/12/02 06:55:31;;;;;;;22.70;15.37;;;;;;;9.04;90.69;100052.19;5074736;28;20187;-56
2022/12/02 06:58:08;;;;;;;20.57;14.87;;;;;;;9.06;91.02;100050.56;5074371;28;20198;-56
2022/12/02 07:00:34;;;;;;;22.77;15.70;;;;;;;9.07;90.45;100059.09;5074700;28;20226;-56
2022/12/02 07:03:01;;;;;;;27.87;15.90;;;;;;;9.08;90.57;100053.16;5074598;28;20195;-56
2022/12/02 07:05:28;;;;;;;24.17;16.53;;;;;;;9.07;90.21;100053.97;5073961;28;20198;-55
2022/12/02 07:07:55;;;;;;;26.60;16.43;;;;;;;9.09;90.29;100054.91;5074440;28;20641;-55
2022/12/02 07:10:28;;;;;;;22.43;15.17;;;;;;;9.11;90.44;100061.81;5074234;28;20199;-55
2022/12/02 07:12:57;;;;;;;25.00;15.97;;;;;;;9.10;91.24;100060.06;5074473;28;20264;-55
2022/12/02 07:15:27;;;;;;;22.67;15.70;;;;;;;9.16;91.43;100064.50;5073955;28;20199;-55
2022/12/02 07:17:57;;;;;;;29.53;18.40;;;;;;;9.19;91.68;100062.03;5073630;28;20653;-55
2022/12/02 07:20:32;;;;;;;26.87;16.40;;;;;;;9.22;92.17;100068.16;5074080;28;20593;-55
2022/12/02 07:23:01;;;;;;;23.57;16.07;;;;;;;9.28;91.25;100072.59;5074121;28;20194;-55
2022/12/02 07:25:36;;;;;;;25.63;17.60;;;;;;;9.30;91.36;100068.38;5074232;28;20191;-56
2022/12/02 07:28:17;;;;;;;25.80;16.23;;;;;;;9.31;89.62;100070.97;5073925;28;20183;-55
2022/12/02 07:30:48;;;;;;;23.23;15.97;;;;;;;9.30;89.15;100071.81;5072467;28;20198;-56
2022/12/02 07:33:15;;;;;;;25.93;16.97;;;;;;;9.34;89.46;100077.88;5073477;28;20195;-56
2022/12/02 07:35:42;;;;;;;23.80;16.20;;;;;;;9.42;89.34;100073.88;5073879;28;20198;-56
2022/12/02 07:38:08;;;;;;;22.97;16.33;;;;;;;9.46;88.95;100068.88;5072238;28;20248;-55
2022/12/02 07:40:38;;;;;;;23.37;14.47;;;;;;;9.51;88.70;100074.13;5073809;28;20223;-55
2022/12/02 07:43:05;;;;;;;22.00;14.30;;;;;;;9.53;87.91;100063.94;5073720;28;20191;-55
2022/12/02 07:45:32;;;;;;;22.47;15.07;;;;;;;9.60;87.38;100070.97;5073423;28;20703;-55
2022/12/02 07:47:59;;;;;;;22.47;14.33;;;;;;;9.69;87.54;100072.13;5073013;28;20249;-55
2022/12/02 07:50:26;;;;;;;24.73;15.63;;;;;;;9.68;87.01;100072.06;5073637;28;20195;-55
2022/12/02 07:52:53;;;;;;;21.60;14.30;;;;;;;9.67;86.49;100060.91;5060424;28;20226;-55
2022/12/02 07:55:20;;;;;;;20.27;14.47;;;;;;;9.83;86.86;100077.66;5052635;28;20188;-55
2022/12/02 07:57:48;;;;;;;21.50;14.33;;;;;;;9.86;87.14;100064.91;5052746;28;20252;-55
2022/12/02 08:00:16;;;;;;;18.13;12.10;;;;;;;9.85;85.91;100064.03;5052337;28;20227;-56
2022/12/02 08:02:43;;;;;;;20.33;12.37;;;;;;;9.97;85.75;100077.19;5053706;28;20196;-56
2022/12/02 08:05:11;;;;;;;18.50;13.07;;;;;;;9.97;86.15;100079.75;5052001;28;20188;-57
2022/12/02 08:07:38;;;;;;;18.07;11.37;;;;;;;10.07;85.40;100071.50;5051278;28;20184;-57
2022/12/02 08:10:06;;;;;;;16.50;11.07;;;;;;;10.06;85.00;100074.00;5046678;28;20205;-56
2022/12/02 08:12:32;;;;;;;22.87;12.13;;;;;;;10.14;85.11;100081.94;5051671;28;20188;-56
2022/12/02 08:15:01;;;;;;;17.57;12.63;;;;;;;10.10;85.66;100083.56;5051546;28;20196;-58
2022/12/02 08:17:27;;;;;;;19.03;12.43;;;;;;;10.14;84.95;100087.06;5051128;28;20651;-57
2022/12/02 08:19:54;;;;;;;17.33;11.40;;;;;;;10.05;83.91;100083.41;5051164;28;20219;-56
2022/12/02 08:22:21;;;;;;;18.90;12.70;;;;;;;9.95;84.16;100083.97;5051353;28;20185;-56
2022/12/02 08:24:48;;;;;;;19.37;12.97;;;;;;;10.03;84.42;100084.19;5051208;28;20222;-56
2022/12/02 08:27:15;;;;;;;17.47;11.37;;;;;;;10.04;84.66;100081.69;5052025;28;20184;-56
2022/12/02 08:29:41;;;;;;;20.83;12.20;;;;;;;10.14;84.31;100076.81;5051688;28;20554;-56
2022/12/02 08:32:10;;;;;;;14.00;9.13;;;;;;;10.13;83.64;100075.97;5052295;28;20192;-56
2022/12/02 08:34:37;;;;;;;17.67;10.80;;;;;;;10.15;83.94;100079.44;5058519;28;20653;-55
2022/12/02 08:37:03;;;;;;;15.13;10.30;;;;;;;10.05;83.19;100078.25;5072265;28;20191;-55
2022/12/02 08:39:30;;;;;;;14.27;9.63;;;;;;;10.15;83.71;100091.41;5072614;28;20346;-55
2022/12/02 08:41:57;;;;;;;13.17;9.50;;;;;;;10.24;82.69;100087.41;5072311;28;20192;-55
2022/12/02 08:44:24;;;;;;;19.00;10.57;;;;;;;10.25;82.98;100086.56;5072335;28;20191;-56
2022/12/02 08:46:51;;;;;;;13.77;8.97;;;;;;;10.41;82.58;100090.41;5072114;28;20192;-57
2022/12/02 08:49:19;;;;;;;12.73;9.07;;;;;;;10.45;81.46;100097.34;5073095;28;20191;-55
2022/12/02 08:51:46;;;;;;;13.23;8.83;;;;;;;10.48;81.78;100100.00;5072188;28;20219;-55
2022/12/02 08:54:14;;;;;;;14.87;10.10;;;;;;;10.56;81.65;100103.63;5072204;28;20282;-55
2022/12/02 08:56:41;;;;;;;16.10;10.33;;;;;;;10.57;81.55;100090.84;5071071;28;20558;-57
2022/12/02 08:59:08;;;;;;;14.43;9.80;;;;;;;10.68;82.64;100096.25;5070752;28;20274;-56
2022/12/02 09:01:35;;;;;;;13.50;9.27;;;;;;;10.74;82.95;100093.81;5071608;28;20790;-55
2022/12/02 09:04:02;;;;;;;13.43;9.63;;;;;;;10.84;82.59;100094.94;5072218;28;20214;-55
2022/12/02 09:06:30;;;;;;;13.53;9.90;;;;;;;10.85;81.50;100088.97;5072287;28;20628;-56
2022/12/02 09:08:57;;;;;;;14.03;10.47;;;;;;;10.98;80.44;100085.84;5072294;28;20558;-55
2022/12/02 09:11:24;;;;;;;12.03;8.80;;;;;;;11.03;79.32;100084.25;5072478;28;20199;-55
2022/12/02 09:13:50;;;;;;;11.53;8.57;;;;;;;11.09;79.16;100085.28;5051902;28;20196;-56
2022/12/02 09:16:17;;;;;;;12.37;9.20;;;;;;;11.13;78.25;100083.63;5049689;28;20188;-56
2022/12/02 09:18:44;;;;;;;11.47;8.37;;;;;;;11.12;78.36;100075.03;5051215;28;20253;-56
2022/12/02 09:21:11;;;;;;;13.77;9.77;;;;;;;11.23;77.46;100089.00;5050109;28;20815;-56
2022/12/02 09:23:39;;;;;;;9.97;7.47;;;;;;;11.31;75.42;100083.19;5053204;28;20434;-55
2022/12/02 09:26:06;;;;;;;9.77;7.47;;;;;;;11.32;74.19;100078.06;5050660;28;20670;-56
2022/12/02 09:28:33;;;;;;;10.17;6.30;;;;;;;11.40;74.39;100083.41;5063493;28;20203;-56
2022/12/02 09:31:00;;;;;;;3.60;3.30;;;;;;;11.47;72.88;100082.69;5056594;28;20192;-56
2022/12/02 09:33:27;;;;;;;7.40;5.80;;;;;;;11.56;72.49;100080.34;5048658;28;20266;-56
2022/12/02 09:35:53;;;;;;;6.43;5.50;;;;;;;11.53;72.20;100077.69;5048218;28;20250;-56
2022/12/02 09:38:20;;;;;;;9.07;6.90;;;;;;;11.61;72.69;100081.28;5057014;28;20191;-55
2022/12/02 09:40:49;;;;;;;8.90;7.43;;;;;;;11.59;73.35;100080.41;5073225;28;20226;-56
2022/12/02 09:43:15;;;;;;;8.90;6.90;;;;;;;11.51;73.32;100072.50;5075562;28;20206;-56
2022/12/02 09:45:43;;;;;;;9.07;6.93;;;;;;;11.47;74.79;100068.13;5075774;28;20195;-55
2022/12/02 09:48:09;;;;;;;9.37;7.07;;;;;;;11.42;75.08;100066.28;5075884;28;20650;-56
2022/12/02 09:50:38;;;;;;;12.37;7.50;;;;;;;11.51;75.35;100071.66;5057761;28;20208;-56
2022/12/02 09:53:07;;;;;;;9.13;7.27;;;;;;;11.44;74.70;100070.63;5035404;28;20233;-56
2022/12/02 09:55:36;;;;;;;11.27;7.20;;;;;;;11.01;75.10;100050.81;5036352;28;20199;-56
2022/12/02 09:58:12;;;;;;;10.60;7.20;;;;;;;11.18;75.53;100048.59;5075159;28;20199;-56
2022/12/02 10:00:39;;;;;;;10.63;7.90;;;;;;;11.34;74.70;100071.28;5075283;28;20268;-56
2022/12/02 10:03:07;;;;;;;8.70;7.10;;;;;;;11.21;74.13;100064.09;5075325;28;20195;-56
2022/12/02 10:05:35;;;;;;;9.77;7.17;;;;;;;10.81;74.99;100064.00;5075370;28;20187;-55
2022/12/02 10:08:04;;;;;;;9.97;6.80;;;;;;;10.90;75.37;100061.66;5075323;28;20215;-56
2022/12/02 10:10:37;;;;;;;9.03;6.80;;;;;;;10.71;75.54;100056.91;5075150;28;20195;-56
2022/12/02 10:13:04;;;;;;;9.70;7.33;;;;;;;10.75;75.72;100059.59;5074859;28;20188;-55
2022/12/02 10:15:32;;;;;;;9.90;7.77;;;;;;;11.01;75.55;100047.38;5074787;28;20225;-55
2022/12/02 10:18:08;;;;;;;9.23;7.28;;;;;;;11.21;74.06;100056.38;5075134;28;20433;-56
2022/12/02 10:20:34;;;;;;;10.13;6.80;;;;;;;11.24;73.49;100062.47;5075388;28;20242;-56
2022/12/02 10:23:11;;;;;;;9.53;6.77;;;;;;;11.22;72.93;100061.56;5075152;28;20211;-56
2022/12/02 10:25:39;;;;;;;8.93;7.00;;;;;;;11.21;73.56;100062.41;5075129;28;20282;-56
2022/12/02 10:28:19;;;;;;;8.00;6.57;;;;;;;11.24;74.41;100065.03;5074712;28;20195;-56
2022/12/02 10:30:52;;;;;;;10.37;6.80;;;;;;;11.11;74.77;100059.59;5074939;28;20200;-57
2022/12/02 10:33:23;;;;;;;9.23;7.13;;;;;;;11.30;75.20;100055.72;5074690;28;20188;-57
2022/12/02 10:35:52;;;;;;;11.30;8.43;;;;;;;11.35;74.35;100046.41;5072300;28;20183;-57
2022/12/02 10:38:40;;;;;;;10.90;8.45;;;;;;;11.19;74.39;100046.06;5052697;28;20511;-57
2022/12/02 10:41:23;;;;;;;8.33;7.23;;;;;;;11.21;73.75;100054.69;5053810;28;20216;-58
2022/12/02 10:44:06;;;;;;;9.43;6.80;;;;;;;11.37;73.33;100047.31;5050766;28;20211;-57
2022/12/02 10:46:34;;;;;;;11.23;8.50;;;;;;;11.53;73.70;100051.97;5048560;28;20655;-57
2022/12/02 10:49:16;;;;;;;10.67;7.60;;;;;;;11.67;73.77;100053.97;5043128;28;20286;-57
2022/12/02 10:51:43;;;;;;;11.43;7.43;;;;;;;11.84;73.48;100046.63;5053366;28;20226;-57
2022/12/02 10:54:22;;;;;;;8.50;7.00;;;;;;;11.98;72.46;100045.19;5040845;28;20733;-57
2022/12/02 10:56:49;;;;;;;11.67;6.97;;;;;;;11.95;70.94;100045.13;5040343;28;20215;-56
2022/12/02 10:59:16;;;;;;;9.43;6.97;;;;;;;11.77;71.60;100043.06;5048932;28;20198;-56
2022/12/02 11:01:45;;;;;;;11.83;7.27;;;;;;;11.89;71.21;100047.59;5068655;28;20298;-56
2022/12/02 11:04:13;;;;;;;9.17;7.07;;;;;;;11.92;70.85;100046.78;5074005;28;20191;-56
2022/12/02 11:06:40;;;;;;;9.00;7.30;;;;;;;11.75;71.02;100049.03;5074118;28;20241;-56
2022/12/02 11:09:08;;;;;;;10.63;8.13;;;;;;;11.81;71.26;100044.00;5057336;28;20447;-57
2022/12/02 11:11:39;;;;;;;10.50;8.40;;;;;;;11.96;71.86;100049.44;5053635;28;20188;-56
2022/12/02 11:14:11;;;;;;;8.63;7.13;;;;;;;11.99;71.42;100046.94;5053386;28;20280;-56
2022/12/02 11:16:47;;;;;;;10.07;8.73;;;;;;;12.03;71.59;100046.13;5052561;28;20925;-56
2022/12/02 11:19:46;;;;;;;10.20;7.60;;;;;;;11.94;71.63;100043.41;5053554;28;20279;-56
2022/12/02 11:22:48;;;;;;;11.43;7.90;;;;;;;12.20;72.19;100044.75;5042281;28;20252;-56
2022/12/02 11:25:52;;;;;;;9.53;6.30;;;;;;;12.31;71.69;100042.38;5042663;28;20204;-55
2022/12/02 11:28:34;;;;;;;7.60;6.03;;;;;;;12.28;70.33;100045.75;5033541;28;20207;-56
2022/12/02 11:31:18;;;;;;;10.70;8.27;;;;;;;12.36;70.48;100046.75;5033695;28;20189;-57